»·PEaware :: DAL213 KSAN-KLAS

DAL213 :: KSAN-KLAS

FLIGHT INFORMATION

Flight Status: Arrived
Operator:
Delta Air Lines
More flights by this operator :: More flights under this callsign
Pilot: Nico L. (9332)
Aircraft: BOEING 737-800
(B738)
More flights by this aircraft type
Origin: KSAN San Diego Intl-Lindbergh
United States
Destination: KLAS McCarran Intl
United States
More flights between these airports :: More routes between these airports
Route: +PADRZ2 CHKNN SEBBY YELAH MISEN KEPEC6
File this flight plan on PilotEdge
Remarks:
Altitude:
(Current/Filed)
32,000ft
Speed:
(Current/Filed)
450kts
Departed: 12-Feb-20 11:18 PM
Arrived: 13-Feb-20 12:11 AM
Distance/Time
Traveled:
225nm/0:53
Distance/Time
To Go:
Arrived

Flight Plot

Page will automatically refresh every two minutes.

Flight plan parsing failed; only flown route is shown


Map Options




Map Legend


Flown Route
Filed Route
Departure Airport
Arrival Airport
Navaid (VOR, NDB)
Fix

Horizontal Profiles

Position Reports

Time Latitude Longitude Heading Altitude Ground
Speed
12-Feb-20 22:44 32.734640 -117.203826 195 24ft 0kts
12-Feb-20 22:45 32.734640 -117.203826 195 24ft 0kts
12-Feb-20 22:46 32.734640 -117.203826 195 24ft 0kts
12-Feb-20 22:47 32.734640 -117.203826 195 24ft 0kts
12-Feb-20 22:48 32.734640 -117.203826 195 24ft 0kts
12-Feb-20 22:49 32.734640 -117.203826 195 24ft 0kts
12-Feb-20 22:50 32.734640 -117.203826 195 24ft 0kts
12-Feb-20 22:51 32.734640 -117.203826 195 24ft 0kts
12-Feb-20 22:52 32.734640 -117.203826 195 24ft 0kts
12-Feb-20 22:53 32.734640 -117.203826 195 24ft 0kts
12-Feb-20 22:54 32.734640 -117.203826 195 24ft 0kts
12-Feb-20 22:55 32.734640 -117.203826 195 24ft 0kts
12-Feb-20 22:56 32.734640 -117.203826 195 24ft 0kts
12-Feb-20 22:57 32.734640 -117.203826 195 24ft 0kts
12-Feb-20 22:58 32.734640 -117.203826 195 24ft 0kts
12-Feb-20 22:59 32.734640 -117.203826 195 24ft 0kts
12-Feb-20 23:00 32.734640 -117.203826 195 24ft 0kts
12-Feb-20 23:01 32.734640 -117.203826 195 24ft 0kts
12-Feb-20 23:02 32.734640 -117.203826 195 24ft 0kts
12-Feb-20 23:03 32.734640 -117.203826 195 24ft 0kts
12-Feb-20 23:04 32.734640 -117.203826 195 24ft 0kts
12-Feb-20 23:05 32.735068 -117.203808 162 24ft 2kts
12-Feb-20 23:06 32.735191 -117.203869 151 24ft 0kts
12-Feb-20 23:07 32.735191 -117.203869 151 24ft 0kts
12-Feb-20 23:08 32.735191 -117.203869 151 24ft 0kts
12-Feb-20 23:09 32.735190 -117.203868 151 24ft 0kts
12-Feb-20 23:10 32.735122 -117.202974 80 24ft 13kts
12-Feb-20 23:11 32.734466 -117.197696 105 24ft 17kts
12-Feb-20 23:12 32.733152 -117.192289 105 24ft 16kts
12-Feb-20 23:13 32.731775 -117.186600 105 24ft 19kts
12-Feb-20 23:14 32.730269 -117.180372 106 24ft 18kts
12-Feb-20 23:15 32.729499 -117.176906 73 24ft 0kts
12-Feb-20 23:16 32.729688 -117.176161 69 24ft 19kts
12-Feb-20 23:17 32.736466 -117.201578 286 393ft 158kts
12-Feb-20 23:18 32.762680 -117.253207 304 2532ft 217kts
12-Feb-20 23:19 32.801213 -117.321292 305 5141ft 266kts
12-Feb-20 23:20 32.847512 -117.392656 307 8508ft 280kts
12-Feb-20 23:21 32.897226 -117.469843 307 11001ft 319kts
12-Feb-20 23:22 32.955220 -117.560106 307 13304ft 356kts
12-Feb-20 23:23 33.016864 -117.656324 307 16339ft 373kts
12-Feb-20 23:24 33.085992 -117.751394 318 19197ft 389kts
12-Feb-20 23:25 33.169688 -117.837185 319 21744ft 405kts
12-Feb-20 23:26 33.258123 -117.924563 320 23941ft 419kts
12-Feb-20 23:27 33.349620 -118.013959 320 25841ft 431kts
12-Feb-20 23:28 33.443584 -118.106038 320 27447ft 442kts
12-Feb-20 23:29 33.539855 -118.200656 320 28794ft 451kts
12-Feb-20 23:30 33.649326 -118.275700 334 29900ft 459kts
12-Feb-20 23:31 33.764064 -118.338752 341 30755ft 466kts
12-Feb-20 23:32 33.883845 -118.304361 46 31161ft 468kts
12-Feb-20 23:33 33.918816 -118.158736 83 31152ft 465kts
12-Feb-20 23:34 33.955487 -118.010570 59 31147ft 463kts
12-Feb-20 23:35 34.028246 -117.882496 54 31142ft 464kts
12-Feb-20 23:36 34.103622 -117.755800 50 31144ft 464kts
12-Feb-20 23:37 34.185818 -117.636588 50 31141ft 461kts
12-Feb-20 23:38 34.267298 -117.517155 50 31141ft 460kts
12-Feb-20 23:39 34.348765 -117.397326 50 31141ft 460kts
12-Feb-20 23:40 34.429783 -117.277755 50 31141ft 460kts
12-Feb-20 23:41 34.511006 -117.157475 50 31141ft 460kts
12-Feb-20 23:42 34.591759 -117.037484 50 31141ft 460kts
12-Feb-20 23:43 34.672451 -116.917174 50 31141ft 460kts
12-Feb-20 23:44 34.753267 -116.796268 50 31141ft 460kts
12-Feb-20 23:45 34.833743 -116.675457 50 30695ft 458kts
12-Feb-20 23:46 34.929172 -116.572870 38 28098ft 463kts
12-Feb-20 23:47 35.029625 -116.474787 38 25802ft 455kts
12-Feb-20 23:48 35.123740 -116.377086 45 24156ft 429kts
12-Feb-20 23:49 35.204776 -116.275664 45 24100ft 404kts
12-Feb-20 23:50 35.286583 -116.172908 45 21432ft 426kts
12-Feb-20 23:52 35.367846 -116.070520 45 19074ft 409kts
12-Feb-20 23:53 35.446831 -115.970699 45 17543ft 402kts
12-Feb-20 23:54 35.523590 -115.873402 45 16019ft 392kts
12-Feb-20 23:55 35.596071 -115.781265 45 14536ft 357kts
12-Feb-20 23:56 35.661515 -115.697850 46 13274ft 319kts
12-Feb-20 23:57 35.720252 -115.622815 46 13006ft 301kts
12-Feb-20 23:58 35.790427 -115.573904 3 13051ft 302kts
12-Feb-20 23:59 35.873957 -115.569016 2 13006ft 300kts
13-Feb-20 00:00 35.956078 -115.556497 29 13005ft 300kts
13-Feb-20 00:01 36.000182 -115.471318 67 13007ft 300kts
13-Feb-20 00:02 36.028579 -115.374754 79 12910ft 293kts
13-Feb-20 00:03 36.049290 -115.279831 73 9978ft 284kts
13-Feb-20 00:04 36.088928 -115.196471 40 6210ft 294kts
13-Feb-20 00:05 36.099803 -115.123573 155 4271ft 259kts
13-Feb-20 00:06 36.063133 -115.160406 299 3443ft 175kts
13-Feb-20 00:07 36.101886 -115.173204 353 2536ft 153kts
13-Feb-20 00:08 36.140398 -115.170915 49 2764ft 143kts
13-Feb-20 00:09 36.116364 -115.146954 188 2481ft 146kts
13-Feb-20 00:09 36.086480 -115.160587 204 2190ft 97kts
13-Feb-20 00:11 36.082701 -115.160492 24 2190ft 5kts
13-Feb-20 00:12 36.083884 -115.159761 27 2190ft 3kts
13-Feb-20 00:12 36.085386 -115.158902 24 2190ft 12kts
13-Feb-20 00:14 36.085109 -115.156363 49 2190ft 8kts
13-Feb-20 00:14 36.085446 -115.155060 106 2190ft 0kts
13-Feb-20 00:15 36.085446 -115.155060 106 2190ft 0kts
13-Feb-20 00:17 36.085446 -115.155060 106 2190ft 0kts
13-Feb-20 00:17 36.085446 -115.155060 106 2190ft 0kts
13-Feb-20 00:18 36.085446 -115.155060 106 2190ft 0kts
13-Feb-20 00:19 36.085446 -115.155060 106 2190ft 0kts
13-Feb-20 00:20 36.085446 -115.155060 106 2190ft 0kts
13-Feb-20 00:21 36.085446 -115.155060 106 2190ft 0kts
13-Feb-20 00:22 36.085446 -115.155060 106 2190ft 0kts
13-Feb-20 00:23 36.085446 -115.155060 106 2190ft 0kts
13-Feb-20 00:24 36.085446 -115.155060 106 2190ft 0kts

Navigation Log

Ident Type
Flight plan parsing failed, navigation log unavailable